createdAt,value
2022-09-18T00:01:27.809Z,60.67
2022-09-18T00:03:58.026Z,59.97
2022-09-18T00:06:28.074Z,60.63
2022-09-18T00:08:58.651Z,59.87
2022-09-18T00:11:29.889Z,61.43
2022-09-18T00:13:58.023Z,60.00
2022-09-18T00:16:26.664Z,59.73
2022-09-18T00:18:54.716Z,61.97
2022-09-18T00:21:25.095Z,59.53
2022-09-18T00:23:55.194Z,59.53
2022-09-18T00:26:25.743Z,60.27
2022-09-18T00:28:53.959Z,60.97
2022-09-18T00:31:25.594Z,63.80
2022-09-18T00:33:53.317Z,61.53
2022-09-18T00:36:21.701Z,60.00
2022-09-18T00:38:49.937Z,60.97
2022-09-18T00:41:23.751Z,60.70
2022-09-18T00:43:53.892Z,61.83
2022-09-18T00:46:26.480Z,59.60
2022-09-18T00:49:03.075Z,61.27
2022-09-18T00:51:32.617Z,60.47
2022-09-18T00:54:09.634Z,60.90
2022-09-18T00:56:38.809Z,60.70
2022-09-18T00:59:09.763Z,61.60
2022-09-18T01:01:37.497Z,61.20
2022-09-18T01:04:05.258Z,61.23
2022-09-18T01:06:42.227Z,61.37
2022-09-18T01:09:27.792Z,60.33
2022-09-18T01:12:01.928Z,60.60
2022-09-18T01:14:37.573Z,60.07
2022-09-18T01:17:16.468Z,61.80
2022-09-18T01:20:01.743Z,63.03
2022-09-18T01:22:45.990Z,60.20
2022-09-18T01:25:23.772Z,60.77
2022-09-18T01:28:07.959Z,61.97
2022-09-18T01:30:39.622Z,63.27
2022-09-18T01:33:11.656Z,62.00
2022-09-18T01:35:44.429Z,61.43
2022-09-18T01:38:17.153Z,60.77
2022-09-18T01:40:49.379Z,60.47
2022-09-18T01:43:21.736Z,61.07
2022-09-18T01:45:51.628Z,61.37
2022-09-18T01:48:26.004Z,63.30
2022-09-18T01:50:56.687Z,62.70
2022-09-18T01:53:29.754Z,61.67
2022-09-18T01:56:02.491Z,60.60
2022-09-18T01:58:34.905Z,62.20
2022-09-18T02:01:09.248Z,60.90
2022-09-18T02:03:42.169Z,62.57
2022-09-18T02:06:14.598Z,61.13
2022-09-18T02:08:45.463Z,60.33
2022-09-18T02:11:14.798Z,63.23
2022-09-18T02:13:47.139Z,62.87
2022-09-18T02:16:20.027Z,59.60
2022-09-18T02:18:52.907Z,62.60
2022-09-18T02:21:25.025Z,63.33
2022-09-18T02:23:53.852Z,61.33
2022-09-18T02:26:22.444Z,61.93
2022-09-18T02:28:52.673Z,62.33
2022-09-18T02:31:20.317Z,63.03
2022-09-18T02:33:48.041Z,63.50
2022-09-18T02:36:42.880Z,61.67
2022-09-18T02:39:24.655Z,62.50
2022-09-18T02:42:02.172Z,63.00
2022-09-18T02:44:35.040Z,62.33
2022-09-18T02:47:11.228Z,61.30
2022-09-18T02:49:46.090Z,63.13
2022-09-18T02:52:18.158Z,62.40
2022-09-18T02:54:50.001Z,63.00
2022-09-18T02:57:22.461Z,62.07
2022-09-18T02:59:55.774Z,63.07
2022-09-18T03:02:24.846Z,63.10
2022-09-18T03:04:53.462Z,62.83
2022-09-18T03:07:21.234Z,62.37
2022-09-18T03:09:49.061Z,62.93
2022-09-18T03:12:16.906Z,62.60
2022-09-18T03:14:44.518Z,63.07
2022-09-18T03:17:13.393Z,61.60
2022-09-18T03:19:40.998Z,62.67
2022-09-18T03:22:09.456Z,62.53
2022-09-18T03:24:37.016Z,63.53
2022-09-18T03:27:05.065Z,63.43
2022-09-18T03:29:32.636Z,63.63
2022-09-18T03:32:00.231Z,62.70
2022-09-18T03:34:29.737Z,60.70
2022-09-18T03:36:57.274Z,61.60
2022-09-18T03:39:24.977Z,60.43
2022-09-18T03:41:52.512Z,60.67
2022-09-18T03:44:20.052Z,63.10
2022-09-18T03:46:47.724Z,62.00
2022-09-18T03:49:15.380Z,61.40
2022-09-18T03:51:44.463Z,62.23
2022-09-18T03:54:12.015Z,60.97
2022-09-18T03:56:39.577Z,62.20
2022-09-18T03:59:07.175Z,62.30
2022-09-18T04:01:34.785Z,61.70
2022-09-18T04:04:02.643Z,61.07
2022-09-18T04:06:30.193Z,61.97
2022-09-18T04:08:59.092Z,62.47
2022-09-18T04:11:26.817Z,62.13
2022-09-18T04:13:54.390Z,61.43
2022-09-18T04:16:22.094Z,61.70
2022-09-18T04:18:49.702Z,61.27
2022-09-18T04:21:17.336Z,62.23
2022-09-18T04:23:44.899Z,61.37
2022-09-18T04:26:13.858Z,61.60
2022-09-18T04:28:41.448Z,63.83
2022-09-18T04:31:09.389Z,61.70
2022-09-18T04:33:36.991Z,61.53
2022-09-18T04:36:04.816Z,61.07
2022-09-18T04:38:32.385Z,61.70
2022-09-18T04:41:01.527Z,62.60
2022-09-18T04:43:30.426Z,61.80
2022-09-18T04:45:58.177Z,62.07
2022-09-18T04:48:25.738Z,62.87
2022-09-18T04:50:53.374Z,63.23
2022-09-18T04:53:21.107Z,63.47
2022-09-18T04:55:49.490Z,61.83
2022-09-18T04:58:18.558Z,62.23
2022-09-18T05:00:49.579Z,61.43
2022-09-18T05:03:17.980Z,62.57
2022-09-18T05:05:45.719Z,62.70
2022-09-18T05:08:13.308Z,60.37
2022-09-18T05:10:40.906Z,62.40
2022-09-18T05:13:08.890Z,62.47
2022-09-18T05:15:36.526Z,63.80
2022-09-18T05:18:11.349Z,63.77
2022-09-18T05:20:39.454Z,64.37
2022-09-18T05:23:07.452Z,66.17
2022-09-18T05:25:35.057Z,62.13
2022-09-18T05:28:03.990Z,63.47
2022-09-18T05:30:32.536Z,61.37
2022-09-18T05:33:02.534Z,62.07
2022-09-18T05:35:33.232Z,62.07
2022-09-18T05:38:01.287Z,63.37
2022-09-18T05:40:32.842Z,61.93
2022-09-18T05:43:01.045Z,61.43
2022-09-18T05:45:28.590Z,64.17
2022-09-18T05:47:57.482Z,61.50
2022-09-18T05:50:26.191Z,62.27
2022-09-18T05:53:02.896Z,62.30
2022-09-18T05:55:32.130Z,61.13
2022-09-18T05:58:01.322Z,61.80
2022-09-18T06:00:31.286Z,61.87
2022-09-18T06:03:00.914Z,62.10
2022-09-18T06:05:30.397Z,60.53
2022-09-18T06:07:59.951Z,60.57
2022-09-18T06:10:30.327Z,61.27
2022-09-18T06:13:02.492Z,64.17
2022-09-18T06:15:30.218Z,61.07
2022-09-18T06:17:57.803Z,61.80
2022-09-18T06:20:25.503Z,61.70
2022-09-18T06:22:53.144Z,61.77
2022-09-18T06:25:22.095Z,60.33
2022-09-18T06:27:54.539Z,62.60
2022-09-18T06:30:22.093Z,61.13
2022-09-18T06:32:49.623Z,62.77
2022-09-18T06:35:17.573Z,60.87
2022-09-18T06:37:45.107Z,63.47
2022-09-18T06:40:13.225Z,67.77
2022-09-18T06:42:45.830Z,68.90
2022-09-18T06:45:15.209Z,63.87
2022-09-18T06:47:42.784Z,63.30
2022-09-18T06:50:10.654Z,62.70
2022-09-18T06:52:38.203Z,62.17
2022-09-18T06:55:06.366Z,61.27
2022-09-18T06:57:33.945Z,60.90
2022-09-18T07:00:01.714Z,62.33
2022-09-18T07:02:30.655Z,61.20
2022-09-18T07:04:58.232Z,62.87
2022-09-18T07:07:25.777Z,61.90
2022-09-18T07:09:53.570Z,63.50
2022-09-18T07:12:21.104Z,61.63
2022-09-18T07:14:48.689Z,61.90
2022-09-18T07:17:18.732Z,59.97
2022-09-18T07:19:48.992Z,61.70
2022-09-18T07:22:16.549Z,60.63
2022-09-18T07:24:44.146Z,60.77
2022-09-18T07:27:11.758Z,59.23
2022-09-18T07:29:39.588Z,61.13
2022-09-18T07:32:07.589Z,61.27
2022-09-18T07:34:35.196Z,62.97
2022-09-18T07:37:04.090Z,62.87
2022-09-18T07:39:31.713Z,65.47
2022-09-18T07:41:59.271Z,61.60
2022-09-18T07:44:27.655Z,60.50
2022-09-18T07:46:55.417Z,60.17
2022-09-18T07:49:23.090Z,58.80
2022-09-18T07:51:50.644Z,60.47
2022-09-18T07:54:19.902Z,59.60
2022-09-18T07:56:47.534Z,61.50
2022-09-18T07:59:15.257Z,59.60
2022-09-18T08:01:42.908Z,59.83
2022-09-18T08:04:10.773Z,63.40
2022-09-18T08:06:38.479Z,60.70
2022-09-18T08:09:06.518Z,61.13
2022-09-18T08:11:35.484Z,59.93
2022-09-18T08:14:03.041Z,60.03
2022-09-18T08:16:30.680Z,62.57
2022-09-18T08:18:58.448Z,59.57
2022-09-18T08:21:26.040Z,59.50
2022-09-18T08:23:53.586Z,60.70
2022-09-18T08:26:22.462Z,60.97
2022-09-18T08:28:51.556Z,58.80
2022-09-18T08:31:19.232Z,61.27
2022-09-18T08:33:46.887Z,59.03
2022-09-18T08:36:14.432Z,62.13
2022-09-18T08:38:41.981Z,60.50
2022-09-18T08:41:29.824Z,60.80
2022-09-18T08:44:04.585Z,59.27
2022-09-18T08:46:37.129Z,59.97
2022-09-18T08:49:19.070Z,60.00
2022-09-18T08:51:54.788Z,59.33
2022-09-18T08:54:35.079Z,59.90
2022-09-18T08:57:15.489Z,59.43
2022-09-18T08:59:49.522Z,61.40
2022-09-18T09:02:25.463Z,60.60
2022-09-18T09:04:58.120Z,61.37
2022-09-18T09:07:44.350Z,59.43
2022-09-18T09:10:36.321Z,60.30
2022-09-18T09:13:26.251Z,60.43
2022-09-18T09:16:00.612Z,60.63
2022-09-18T09:18:33.460Z,61.23
2022-09-18T09:21:14.995Z,61.90
2022-09-18T09:23:53.701Z,60.40
2022-09-18T09:26:24.756Z,63.50
2022-09-18T09:28:56.550Z,59.53
2022-09-18T09:31:28.733Z,59.23
2022-09-18T09:34:02.437Z,59.60
2022-09-18T09:36:32.894Z,58.97
2022-09-18T09:39:06.984Z,59.60
2022-09-18T09:41:42.174Z,59.90
2022-09-18T09:44:27.315Z,59.80
2022-09-18T09:47:05.155Z,59.00
2022-09-18T09:49:39.100Z,59.17
2022-09-18T09:52:15.144Z,59.73
2022-09-18T09:54:44.234Z,61.53
2022-09-18T09:57:23.409Z,60.50
2022-09-18T10:00:02.838Z,59.23
2022-09-18T10:02:37.715Z,59.87
2022-09-18T10:05:17.254Z,59.93
2022-09-18T10:07:50.600Z,60.60
2022-09-18T10:10:27.274Z,59.97
2022-09-18T10:12:59.086Z,59.87
2022-09-18T10:15:34.940Z,58.70
2022-09-18T10:18:06.950Z,60.87
2022-09-18T10:20:37.480Z,61.97
2022-09-18T10:23:25.544Z,61.40
2022-09-18T10:25:56.986Z,61.37
2022-09-18T10:28:26.519Z,59.43
2022-09-18T10:30:57.651Z,59.90
2022-09-18T10:33:35.636Z,61.13
2022-09-18T10:36:12.455Z,63.00
2022-09-18T10:38:40.009Z,60.17
2022-09-18T10:41:28.929Z,60.53
2022-09-18T10:44:00.719Z,62.90
2022-09-18T10:46:31.068Z,60.47
2022-09-18T10:49:05.934Z,61.73
2022-09-18T10:51:33.472Z,60.40
2022-09-18T10:54:04.634Z,59.40
2022-09-18T10:56:33.348Z,59.60
2022-09-18T10:59:35.219Z,60.90
2022-09-18T11:02:05.990Z,65.43
2022-09-18T11:04:35.295Z,59.87
2022-09-18T11:07:07.453Z,60.73
2022-09-18T11:09:39.512Z,60.87
2022-09-18T11:12:15.589Z,61.13
2022-09-18T11:14:46.896Z,60.27
2022-09-18T11:17:25.674Z,59.97
2022-09-18T11:19:57.046Z,61.00
2022-09-18T11:22:34.823Z,60.30
2022-09-18T11:25:19.035Z,61.50
2022-09-18T11:27:49.300Z,60.97
2022-09-18T11:30:22.147Z,62.13
2022-09-18T11:32:51.621Z,59.50
2022-09-18T11:35:22.782Z,59.47
2022-09-18T11:37:53.960Z,59.07
2022-09-18T11:40:26.025Z,58.97
2022-09-18T11:42:55.690Z,59.37
2022-09-18T11:45:51.539Z,58.73
2022-09-18T11:48:26.869Z,57.97
2022-09-18T11:51:01.559Z,58.20
2022-09-18T11:53:31.397Z,59.20
2022-09-18T11:56:06.308Z,58.43
2022-09-18T11:58:39.264Z,58.47
2022-09-18T12:01:16.953Z,58.43
2022-09-18T12:03:50.442Z,58.87
2022-09-18T12:06:29.847Z,58.13
2022-09-18T12:09:01.725Z,59.30
2022-09-18T12:11:35.546Z,60.33
2022-09-18T12:14:12.745Z,59.40
2022-09-18T12:16:47.732Z,59.10
2022-09-18T12:19:21.703Z,58.37
2022-09-18T12:21:58.473Z,59.10
2022-09-18T12:24:26.090Z,58.57
2022-09-18T12:27:05.336Z,58.40
2022-09-18T12:29:43.000Z,59.50
2022-09-18T12:32:24.980Z,61.53
2022-09-18T12:35:02.185Z,59.93
2022-09-18T12:37:46.498Z,62.97
2022-09-18T12:40:31.037Z,62.97
2022-09-18T12:43:16.279Z,60.80
2022-09-18T12:46:03.183Z,61.13
2022-09-18T12:48:48.798Z,58.70
2022-09-18T12:51:31.640Z,61.17
2022-09-18T12:54:18.516Z,61.13
2022-09-18T12:56:59.041Z,59.30
2022-09-18T12:59:54.120Z,59.73
2022-09-18T13:02:30.237Z,61.00
2022-09-18T13:05:03.610Z,58.43
2022-09-18T13:07:34.498Z,59.90
2022-09-18T13:10:07.826Z,58.83
2022-09-18T13:12:40.621Z,60.30
2022-09-18T13:15:17.129Z,60.63
2022-09-18T13:17:49.825Z,59.13
2022-09-18T13:20:24.041Z,59.40
2022-09-18T13:22:54.355Z,59.70
2022-09-18T13:25:31.103Z,59.70
2022-09-18T13:28:00.870Z,59.00
2022-09-18T13:30:30.367Z,58.30
2022-09-18T13:32:58.778Z,58.70
2022-09-18T13:35:30.174Z,59.13
2022-09-18T13:38:23.350Z,60.60
2022-09-18T13:41:01.970Z,58.80
2022-09-18T13:43:42.264Z,58.93
2022-09-18T13:46:28.987Z,58.53
2022-09-18T13:48:57.288Z,59.20
2022-09-18T13:51:31.311Z,58.53
2022-09-18T13:54:32.439Z,58.73
2022-09-18T13:57:29.690Z,58.70
2022-09-18T14:00:00.509Z,57.97
2022-09-18T14:02:36.632Z,58.97
2022-09-18T14:05:30.264Z,58.70
2022-09-18T14:08:04.074Z,57.77
2022-09-18T14:10:35.308Z,57.73
2022-09-18T14:13:31.255Z,57.40
2022-09-18T14:16:03.849Z,57.83
2022-09-18T14:18:34.973Z,57.93
2022-09-18T14:21:16.386Z,58.63
2022-09-18T14:24:05.848Z,59.13
2022-09-18T14:27:13.195Z,59.00
2022-09-18T14:29:42.317Z,60.10
2022-09-18T14:32:19.069Z,59.67
2022-09-18T14:34:46.758Z,59.30
2022-09-18T14:37:25.342Z,59.20
2022-09-18T14:39:55.405Z,60.10
2022-09-18T14:42:33.148Z,59.17
2022-09-18T14:45:24.182Z,58.43
2022-09-18T14:47:52.185Z,58.30
2022-09-18T14:50:29.285Z,58.13
2022-09-18T14:52:57.876Z,59.20
2022-09-18T14:55:35.344Z,58.73
2022-09-18T14:58:07.163Z,59.03
2022-09-18T15:00:38.387Z,59.00
2022-09-18T15:03:08.922Z,59.57
2022-09-18T15:05:37.318Z,58.80
2022-09-18T15:08:08.242Z,58.97
2022-09-18T15:10:40.373Z,58.53
2022-09-18T15:13:10.261Z,59.37
2022-09-18T15:15:40.812Z,58.93
2022-09-18T15:18:20.352Z,60.00
2022-09-18T15:20:50.599Z,60.20
2022-09-18T15:23:20.199Z,63.37
2022-09-18T15:25:52.425Z,60.27
2022-09-18T15:28:22.268Z,58.87
2022-09-18T15:30:57.293Z,59.20
2022-09-18T15:33:27.385Z,58.50
2022-09-18T15:35:56.561Z,59.90
2022-09-18T15:38:27.038Z,59.10
2022-09-18T15:40:55.122Z,60.40
2022-09-18T15:43:43.693Z,59.30
2022-09-18T15:46:25.005Z,59.60
2022-09-18T15:48:53.004Z,58.90
2022-09-18T15:51:25.121Z,65.50
2022-09-18T15:54:04.629Z,59.10
2022-09-18T15:56:35.114Z,59.70
2022-09-18T15:59:05.619Z,59.60
2022-09-18T16:01:37.012Z,59.07
2022-09-18T16:04:20.656Z,58.50
2022-09-18T16:06:55.496Z,59.90
2022-09-18T16:09:26.195Z,59.03
2022-09-18T16:11:54.014Z,60.63
2022-09-18T16:14:39.520Z,59.67
2022-09-18T16:17:58.551Z,60.43
2022-09-18T16:20:35.073Z,60.13
2022-09-18T16:23:19.703Z,59.70
2022-09-18T16:26:01.367Z,59.03
2022-09-18T16:28:31.248Z,60.47
2022-09-18T16:30:58.836Z,58.70
2022-09-18T16:33:29.205Z,60.10
2022-09-18T16:36:01.432Z,61.23
2022-09-18T16:38:29.407Z,58.57
2022-09-18T16:40:57.032Z,60.37
2022-09-18T16:43:24.972Z,59.60
2022-09-18T16:45:54.217Z,60.23
2022-09-18T16:48:23.143Z,59.70
2022-09-18T16:50:52.053Z,60.53
2022-09-18T16:53:19.672Z,62.73
2022-09-18T16:55:52.073Z,62.70
2022-09-18T16:58:21.390Z,60.87
2022-09-18T17:00:49.592Z,59.77
2022-09-18T17:03:18.147Z,60.03
2022-09-18T17:05:45.977Z,60.57
2022-09-18T17:08:14.928Z,60.17
2022-09-18T17:10:45.142Z,60.37
2022-09-18T17:13:13.094Z,61.23
2022-09-18T17:15:40.838Z,60.33
2022-09-18T17:18:08.972Z,60.87
2022-09-18T17:20:36.564Z,60.97
2022-09-18T17:23:04.128Z,59.13
2022-09-18T17:25:33.061Z,59.30
2022-09-18T17:28:00.639Z,61.30
2022-09-18T17:30:28.202Z,59.90
2022-09-18T17:32:55.745Z,61.47
2022-09-18T17:35:23.316Z,61.00
2022-09-18T17:37:51.836Z,59.43
2022-09-18T17:40:20.429Z,60.23
2022-09-18T17:42:49.415Z,59.23
2022-09-18T17:45:17.200Z,59.57
2022-09-18T17:47:44.741Z,59.70
2022-09-18T17:50:12.281Z,60.97
2022-09-18T17:52:39.930Z,60.63
2022-09-18T17:55:09.041Z,60.40
2022-09-18T17:57:38.115Z,60.47
2022-09-18T18:00:09.613Z,62.00
2022-09-18T18:02:37.611Z,60.90
2022-09-18T18:05:05.742Z,60.87
2022-09-18T18:07:33.336Z,62.07
2022-09-18T18:10:01.912Z,61.77
2022-09-18T18:12:29.464Z,61.20
2022-09-18T18:14:57.016Z,61.27
2022-09-18T18:17:25.990Z,60.50
2022-09-18T18:19:53.535Z,60.20
2022-09-18T18:22:21.069Z,59.33
2022-09-18T18:24:49.906Z,59.47
2022-09-18T18:27:20.526Z,59.90
2022-09-18T18:29:52.484Z,59.30
2022-09-18T18:32:20.388Z,61.03
2022-09-18T18:34:50.301Z,59.47
2022-09-18T18:37:19.509Z,59.90
2022-09-18T18:39:47.981Z,60.27
2022-09-18T18:42:15.763Z,59.50
2022-09-18T18:44:43.795Z,60.47
2022-09-18T18:47:11.332Z,62.20
2022-09-18T18:49:39.277Z,60.80
2022-09-18T18:52:08.144Z,60.33
2022-09-18T18:54:35.701Z,59.53
2022-09-18T18:57:03.498Z,60.20
2022-09-18T18:59:32.092Z,59.40
2022-09-18T19:02:00.126Z,60.07
2022-09-18T19:04:27.770Z,60.83
2022-09-18T19:06:56.502Z,60.00
2022-09-18T19:09:28.545Z,61.67
2022-09-18T19:11:56.217Z,59.53
2022-09-18T19:14:25.952Z,60.57
2022-09-18T19:16:54.737Z,58.43
2022-09-18T19:19:24.346Z,58.63
2022-09-18T19:21:52.711Z,60.43
2022-09-18T19:24:20.777Z,61.47
2022-09-18T19:26:49.766Z,61.30
2022-09-18T19:29:19.356Z,60.70
2022-09-18T19:31:48.518Z,59.37
2022-09-18T19:34:18.272Z,59.27
2022-09-18T19:36:47.112Z,59.90
2022-09-18T19:39:15.424Z,62.00
2022-09-18T19:41:46.650Z,60.20
2022-09-18T19:44:20.106Z,60.13
2022-09-18T19:46:48.143Z,60.50
2022-09-18T19:49:18.946Z,60.33
2022-09-18T19:51:46.965Z,59.37
2022-09-18T19:54:14.867Z,60.13
2022-09-18T19:56:46.551Z,59.30
2022-09-18T19:59:15.478Z,59.87
2022-09-18T20:01:43.544Z,60.53
2022-09-18T20:04:11.474Z,60.80
2022-09-18T20:06:40.522Z,59.23
2022-09-18T20:09:08.773Z,60.57
2022-09-18T20:11:36.392Z,61.03
2022-09-18T20:14:04.036Z,60.50
2022-09-18T20:16:33.152Z,60.57
2022-09-18T20:19:01.123Z,62.20
2022-09-18T20:21:29.722Z,61.70
2022-09-18T20:23:58.587Z,61.87
2022-09-18T20:26:26.907Z,62.47
2022-09-18T20:28:54.493Z,61.33
2022-09-18T20:31:23.873Z,60.47
2022-09-18T20:33:56.483Z,62.80
2022-09-18T20:36:25.633Z,61.47
2022-09-18T20:38:57.935Z,61.00
2022-09-18T20:41:28.265Z,59.77
2022-09-18T20:43:56.660Z,60.03
2022-09-18T20:46:25.151Z,60.40
2022-09-18T20:48:55.117Z,59.70
2022-09-18T20:51:26.636Z,60.90
2022-09-18T20:53:57.234Z,62.37
2022-09-18T20:56:26.616Z,60.90
2022-09-18T20:58:54.598Z,62.20
2022-09-18T21:01:24.501Z,61.37
2022-09-18T21:03:56.643Z,60.50
2022-09-18T21:06:26.953Z,62.13
2022-09-18T21:08:55.929Z,61.17
2022-09-18T21:11:25.331Z,60.10
2022-09-18T21:13:54.282Z,61.27
2022-09-18T21:16:22.935Z,62.17
2022-09-18T21:18:53.416Z,60.30
2022-09-18T21:21:21.229Z,60.93
2022-09-18T21:23:58.467Z,61.80
2022-09-18T21:26:28.147Z,60.33
2022-09-18T21:28:57.782Z,59.20
2022-09-18T21:31:25.928Z,60.70
2022-09-18T21:33:54.117Z,60.00
2022-09-18T21:36:22.630Z,59.67
2022-09-18T21:38:53.241Z,60.60
2022-09-18T21:41:22.967Z,60.93
2022-09-18T21:43:51.075Z,61.73
2022-09-18T21:46:20.611Z,61.00
2022-09-18T21:48:52.891Z,60.80
2022-09-18T21:51:20.620Z,60.17
2022-09-18T21:53:48.218Z,60.27
2022-09-18T21:56:18.676Z,60.20
2022-09-18T21:58:47.698Z,59.90
2022-09-18T22:01:18.760Z,60.17
2022-09-18T22:03:52.278Z,59.80
2022-09-18T22:06:21.536Z,58.93
2022-09-18T22:08:50.888Z,58.97
2022-09-18T22:11:24.164Z,60.73
2022-09-18T22:13:52.836Z,60.40
2022-09-18T22:16:21.026Z,60.17
2022-09-18T22:18:48.658Z,60.43
2022-09-18T22:21:20.424Z,59.70
2022-09-18T22:23:53.197Z,60.83
2022-09-18T22:26:23.228Z,60.33
2022-09-18T22:28:53.364Z,60.93
2022-09-18T22:31:22.063Z,59.93
2022-09-18T22:33:54.256Z,60.40
2022-09-18T22:36:22.112Z,60.43
2022-09-18T22:38:49.789Z,60.63
2022-09-18T22:41:17.753Z,60.20
2022-09-18T22:43:46.962Z,60.63
2022-09-18T22:46:16.030Z,60.63
2022-09-18T22:48:44.092Z,59.87
2022-09-18T22:51:13.785Z,59.83
2022-09-18T22:53:45.825Z,60.77
2022-09-18T22:56:15.003Z,59.37
2022-09-18T22:58:43.175Z,60.50
2022-09-18T23:01:14.513Z,60.60
2022-09-18T23:03:42.643Z,61.00
2022-09-18T23:06:10.978Z,59.10
2022-09-18T23:08:39.318Z,58.63
2022-09-18T23:11:09.607Z,59.93
2022-09-18T23:13:37.683Z,60.30
2022-09-18T23:16:08.064Z,60.00
2022-09-18T23:18:38.195Z,60.60
2022-09-18T23:21:07.701Z,60.60
2022-09-18T23:23:36.984Z,60.00
2022-09-18T23:26:08.412Z,59.63
2022-09-18T23:28:37.251Z,59.57
2022-09-18T23:31:06.802Z,60.13
2022-09-18T23:33:35.057Z,59.00
2022-09-18T23:36:09.526Z,59.97
2022-09-18T23:38:37.465Z,59.60
2022-09-18T23:41:07.165Z,59.90
2022-09-18T23:43:35.364Z,60.03
2022-09-18T23:46:03.120Z,60.00
2022-09-18T23:48:31.377Z,59.67
2022-09-18T23:51:00.958Z,58.90
2022-09-18T23:53:36.233Z,59.17
2022-09-18T23:56:07.760Z,58.57
2022-09-18T23:58:35.961Z,59.30
